Time;durP1;ratioP1;P1;durP2;ratioP2;P2;SDS_P1;SDS_P2;PMS_P1;PMS_P2;Temp;Humidity;BMP_temperature;BMP_pressure;BME280_temperature;BME280_humidity;BME280_pressure;Samples;Min_cycle;Max_cycle;Signal;HPM_P1;HPM_P2
2022/03/29 00:00:42;;;;;;;31.80;13.48;;;13.80;60.40;;;;;;4958148;29;20016;-83
2022/03/29 00:03:08;;;;;;;29.33;13.90;;;13.70;60.70;;;;;;4960587;29;20028;-83
2022/03/29 00:05:35;;;;;;;30.38;12.43;;;13.60;60.80;;;;;;4950022;29;20324;-82
2022/03/29 00:08:02;;;;;;;28.25;14.30;;;13.50;61.00;;;;;;4939850;29;20044;-81
2022/03/29 00:10:28;;;;;;;25.63;12.57;;;13.50;61.30;;;;;;4942363;29;20012;-83
2022/03/29 00:16:39;;;;;;;31.13;13.63;;;13.30;61.80;;;;;;4954924;29;20047;-82
2022/03/29 00:19:06;;;;;;;27.75;13.00;;;13.20;62.50;;;;;;4945308;29;20091;-85
2022/03/29 00:21:32;;;;;;;24.77;12.27;;;13.10;62.30;;;;;;4947002;29;20032;-83
2022/03/29 00:23:58;;;;;;;27.13;13.15;;;13.10;62.70;;;;;;4946293;29;20040;-86
2022/03/29 00:26:24;;;;;;;29.90;13.07;;;13.00;62.70;;;;;;4940615;29;20015;-82
2022/03/29 00:28:50;;;;;;;29.45;14.45;;;13.00;62.70;;;;;;4940293;29;20042;-86
2022/03/29 00:31:17;;;;;;;31.27;14.00;;;13.00;62.80;;;;;;4937716;29;20028;-84
2022/03/29 00:33:43;;;;;;;34.58;13.77;;;13.00;62.90;;;;;;4941498;29;20118;-85
2022/03/29 00:36:09;;;;;;;30.85;13.95;;;12.90;63.00;;;;;;4943647;29;20009;-85
2022/03/29 00:38:35;;;;;;;31.23;14.38;;;12.90;63.20;;;;;;4940677;29;20063;-83
2022/03/29 00:41:02;;;;;;;28.60;13.57;;;12.90;63.50;;;;;;4943414;29;20075;-85
2022/03/29 00:43:27;;;;;;;34.28;14.50;;;12.80;63.60;;;;;;4945016;29;20032;-85
2022/03/29 00:45:53;;;;;;;31.42;13.93;;;12.70;63.90;;;;;;4933757;29;20024;-86
2022/03/29 00:48:19;;;;;;;31.70;13.50;;;12.70;63.90;;;;;;4929740;29;20029;-86
2022/03/29 00:50:45;;;;;;;31.50;14.02;;;12.60;64.20;;;;;;4940053;29;20016;-84
2022/03/29 00:53:12;;;;;;;29.35;12.73;;;12.60;64.20;;;;;;4949757;29;20040;-83
2022/03/29 00:55:38;;;;;;;37.13;15.25;;;12.50;64.20;;;;;;4947514;29;20032;-84
2022/03/29 00:58:06;;;;;;;35.50;14.18;;;12.50;64.20;;;;;;4939844;29;20020;-82
2022/03/29 01:00:34;;;;;;;32.72;15.07;;;12.50;64.50;;;;;;4940684;29;20480;-86
2022/03/29 01:03:03;;;;;;;28.60;13.13;;;12.50;64.50;;;;;;4942086;29;20028;-82
2022/03/29 01:05:29;;;;;;;29.88;13.73;;;12.40;65.00;;;;;;4935189;29;20023;-84
2022/03/29 01:07:56;;;;;;;35.08;14.57;;;12.40;65.00;;;;;;4940533;29;20016;-82
2022/03/29 01:10:23;;;;;;;33.70;13.82;;;12.30;64.90;;;;;;4940176;29;20019;-84
2022/03/29 01:12:54;;;;;;;36.03;14.57;;;12.30;65.20;;;;;;4940598;29;20055;-86
2022/03/29 01:15:22;;;;;;;33.15;13.50;;;12.30;65.10;;;;;;4929939;29;20023;-85
2022/03/29 01:17:49;;;;;;;35.13;14.73;;;12.30;65.30;;;;;;4931667;29;20028;-86
2022/03/29 01:20:24;;;;;;;30.95;14.27;;;12.30;65.40;;;;;;4943246;29;20039;-85
2022/03/29 01:22:52;;;;;;;33.05;13.90;;;12.20;65.60;;;;;;4927366;29;20025;-83
2022/03/29 01:25:24;;;;;;;26.80;13.43;;;12.20;66.20;;;;;;4941016;29;20071;-84
2022/03/29 01:27:51;;;;;;;30.88;13.25;;;12.10;66.30;;;;;;4932238;29;20033;-83
2022/03/29 01:30:18;;;;;;;28.27;13.32;;;12.10;66.30;;;;;;4940911;29;20056;-85
2022/03/29 01:32:50;;;;;;;28.35;13.68;;;12.10;66.50;;;;;;4940785;29;20108;-85
2022/03/29 01:35:19;;;;;;;34.83;13.63;;;12.00;66.50;;;;;;4940848;29;20084;-84
2022/03/29 01:37:44;;;;;;;35.15;13.80;;;12.00;66.70;;;;;;4928675;29;20025;-84
2022/03/29 01:40:12;;;;;;;29.77;13.70;;;11.90;66.70;;;;;;4938606;29;20027;-83
2022/03/29 01:42:41;;;;;;;34.63;13.88;;;11.90;66.80;;;;;;4948629;29;20020;-86
2022/03/29 01:45:07;;;;;;;27.77;12.80;;;11.90;67.30;;;;;;4943643;29;20035;-86
2022/03/29 01:47:33;;;;;;;29.30;13.55;;;11.80;68.10;;;;;;4929477;29;20028;-85
2022/03/29 01:49:59;;;;;;;29.75;14.02;;;11.70;68.10;;;;;;4945051;29;20080;-86
2022/03/29 01:52:25;;;;;;;31.20;14.35;;;11.70;68.40;;;;;;4946268;29;20146;-86
2022/03/29 01:54:51;;;;;;;39.22;14.50;;;11.60;68.90;;;;;;4942444;29;20035;-86
2022/03/29 01:57:17;;;;;;;30.08;13.73;;;11.50;69.20;;;;;;4944902;29;20012;-84
2022/03/29 02:02:27;;;;;;;33.03;15.68;;;11.40;69.50;;;;;;4939021;29;20063;-82
2022/03/29 02:04:53;;;;;;;28.65;14.15;;;11.30;69.80;;;;;;4939191;29;20035;-85
2022/03/29 02:07:20;;;;;;;30.25;13.80;;;11.30;70.10;;;;;;4943101;29;20038;-83
2022/03/29 02:09:45;;;;;;;30.58;14.82;;;11.30;70.30;;;;;;4945397;29;20024;-85
2022/03/29 02:12:12;;;;;;;30.33;13.80;;;11.20;70.10;;;;;;4946826;29;20042;-84
2022/03/29 02:14:38;;;;;;;32.85;14.55;;;11.20;70.60;;;;;;4948627;29;20036;-84
2022/03/29 02:17:05;;;;;;;34.38;15.52;;;11.10;70.50;;;;;;4934534;29;20087;-83
2022/03/29 02:19:31;;;;;;;29.00;13.82;;;11.10;71.00;;;;;;4946976;29;20036;-85
2022/03/29 02:21:57;;;;;;;30.80;14.13;;;11.10;71.30;;;;;;4946108;29;20104;-86
2022/03/29 02:24:23;;;;;;;37.05;14.95;;;11.00;71.40;;;;;;4941516;29;20068;-85
2022/03/29 02:26:49;;;;;;;31.15;13.10;;;11.00;71.40;;;;;;4944813;29;20032;-84
2022/03/29 02:29:15;;;;;;;35.47;14.10;;;10.90;71.70;;;;;;4941837;29;20024;-86
2022/03/29 02:31:41;;;;;;;36.72;14.82;;;10.90;72.10;;;;;;4933935;29;20054;-85
2022/03/29 02:34:06;;;;;;;32.22;14.82;;;10.80;72.20;;;;;;4944086;29;20017;-84
2022/03/29 02:36:32;;;;;;;30.10;14.23;;;10.80;72.50;;;;;;4944772;29;20039;-85
2022/03/29 02:38:59;;;;;;;29.80;13.38;;;10.70;72.60;;;;;;4948866;29;20026;-83
2022/03/29 02:41:24;;;;;;;35.65;13.57;;;10.70;72.80;;;;;;4945418;29;20036;-85
2022/03/29 02:43:50;;;;;;;28.25;13.43;;;10.60;73.00;;;;;;4948568;29;20035;-86
2022/03/29 02:46:16;;;;;;;30.63;14.10;;;10.60;73.20;;;;;;4947870;29;20051;-82
2022/03/29 02:48:41;;;;;;;31.73;13.38;;;10.50;73.50;;;;;;4943330;29;20023;-83
2022/03/29 02:51:07;;;;;;;34.15;15.07;;;10.50;74.10;;;;;;4943550;29;20091;-83
2022/03/29 02:53:33;;;;;;;30.90;14.85;;;10.50;74.30;;;;;;4942073;29;20048;-82
2022/03/29 02:55:59;;;;;;;31.38;13.82;;;10.40;74.30;;;;;;4942931;29;20087;-84
2022/03/29 02:58:25;;;;;;;34.15;14.20;;;10.40;74.70;;;;;;4941697;29;20043;-82
2022/03/29 03:00:51;;;;;;;33.33;12.68;;;10.40;75.00;;;;;;4942615;29;20035;-83
2022/03/29 03:03:17;;;;;;;31.15;13.80;;;10.30;75.20;;;;;;4942305;29;20032;-84
2022/03/29 03:05:43;;;;;;;27.88;14.07;;;10.30;75.60;;;;;;4941917;29;20029;-83
2022/03/29 03:08:09;;;;;;;30.98;14.05;;;10.20;75.90;;;;;;4921154;29;20017;-85
2022/03/29 03:10:35;;;;;;;31.70;14.30;;;10.20;76.20;;;;;;4939142;29;20035;-84
2022/03/29 03:13:00;;;;;;;34.13;14.48;;;10.10;76.50;;;;;;4937484;29;20062;-84
2022/03/29 03:15:26;;;;;;;29.63;13.30;;;10.10;77.10;;;;;;4935678;29;20020;-83
2022/03/29 03:17:54;;;;;;;34.45;13.45;;;10.10;76.90;;;;;;4910538;29;20072;-86
2022/03/29 03:20:21;;;;;;;34.03;13.52;;;10.10;77.00;;;;;;4931337;29;20020;-86
2022/03/29 03:22:48;;;;;;;31.77;13.38;;;10.10;77.20;;;;;;4930658;29;20039;-85
2022/03/29 03:25:14;;;;;;;34.75;14.73;;;10.10;77.40;;;;;;4931579;29;20092;-85
2022/03/29 03:27:40;;;;;;;33.20;13.43;;;10.00;77.40;;;;;;4928413;29;20032;-85
2022/03/29 03:30:10;;;;;;;28.67;15.05;;;10.00;77.70;;;;;;4937403;29;20043;-84
2022/03/29 03:32:36;;;;;;;32.58;14.52;;;10.00;78.00;;;;;;4933101;29;20039;-85
2022/03/29 03:35:02;;;;;;;33.22;13.98;;;10.00;78.30;;;;;;4927537;29;20039;-86
2022/03/29 03:37:27;;;;;;;31.15;14.82;;;9.90;78.60;;;;;;4910708;29;20452;-83
2022/03/29 03:39:53;;;;;;;30.30;14.50;;;10.00;79.00;;;;;;4924788;29;20020;-86
2022/03/29 03:42:19;;;;;;;37.42;15.63;;;10.00;79.30;;;;;;4932363;29;20488;-83
2022/03/29 03:44:45;;;;;;;32.45;15.52;;;9.90;79.60;;;;;;4917194;29;20050;-84
2022/03/29 03:47:10;;;;;;;33.00;14.57;;;9.90;80.00;;;;;;4932869;29;20024;-86
2022/03/29 03:49:38;;;;;;;32.85;14.57;;;10.00;80.20;;;;;;4932167;29;20503;-82
2022/03/29 03:52:05;;;;;;;35.55;14.52;;;9.90;80.70;;;;;;4940030;29;20083;-84
2022/03/29 03:54:38;;;;;;;40.05;14.35;;;9.90;81.50;;;;;;4955775;23;20048;-81
2022/03/29 03:57:05;;;;;;;33.85;15.32;;;9.90;82.10;;;;;;4933963;29;20603;-80
2022/03/29 03:59:31;;;;;;;39.53;16.10;;;9.90;83.60;;;;;;4936694;29;20020;-82
2022/03/29 04:01:57;;;;;;;32.47;15.00;;;9.90;83.80;;;;;;4934317;29;20079;-81
2022/03/29 04:04:23;;;;;;;34.53;15.63;;;9.90;84.70;;;;;;4928994;29;20039;-81
2022/03/29 04:06:49;;;;;;;43.83;16.30;;;9.90;84.10;;;;;;4930530;29;20635;-82
2022/03/29 04:09:15;;;;;;;31.25;15.02;;;10.00;84.60;;;;;;4928108;29;20044;-80
2022/03/29 04:11:40;;;;;;;34.08;14.82;;;10.00;84.50;;;;;;4936776;29;20052;-80
2022/03/29 04:14:06;;;;;;;38.55;15.10;;;10.10;84.80;;;;;;4934691;29;20039;-81
2022/03/29 04:16:33;;;;;;;29.38;14.02;;;10.10;85.20;;;;;;4930353;29;20028;-80
2022/03/29 04:18:59;;;;;;;31.13;13.45;;;10.00;85.10;;;;;;4929580;29;20028;-81
2022/03/29 04:21:24;;;;;;;33.40;14.15;;;10.00;85.50;;;;;;4933310;29;20058;-79
2022/03/29 04:23:50;;;;;;;33.78;14.55;;;10.00;85.70;;;;;;4913052;29;20519;-80
2022/03/29 04:26:16;;;;;;;31.13;13.77;;;10.00;86.00;;;;;;4930605;29;20128;-80
2022/03/29 04:28:42;;;;;;;31.23;13.88;;;10.00;86.60;;;;;;4931377;29;20324;-79
2022/03/29 04:31:08;;;;;;;33.75;14.88;;;9.90;87.20;;;;;;4932138;29;20024;-79
2022/03/29 04:33:34;;;;;;;37.92;15.90;;;9.90;87.50;;;;;;4932670;29;20063;-78
2022/03/29 04:35:59;;;;;;;28.80;14.23;;;9.90;87.90;;;;;;4931183;29;20032;-81
2022/03/29 04:38:25;;;;;;;30.58;14.20;;;9.80;88.20;;;;;;4933743;29;20024;-80
2022/03/29 04:40:52;;;;;;;33.90;14.48;;;9.80;88.80;;;;;;4930299;29;20481;-82
2022/03/29 04:43:17;;;;;;;34.53;15.98;;;9.70;89.30;;;;;;4929186;29;20030;-80
2022/03/29 04:45:43;;;;;;;33.70;15.73;;;9.80;89.50;;;;;;4925444;29;20040;-83
2022/03/29 04:48:11;;;;;;;35.40;15.52;;;9.80;90.00;;;;;;4921880;29;20024;-80
2022/03/29 04:50:38;;;;;;;39.22;17.42;;;9.80;90.10;;;;;;4902481;29;20047;-81
2022/03/29 04:53:04;;;;;;;34.15;14.85;;;9.70;90.20;;;;;;4906520;29;20056;-81
2022/03/29 04:55:30;;;;;;;35.25;15.80;;;9.80;90.10;;;;;;4924099;29;20024;-83
2022/03/29 04:57:57;;;;;;;35.08;15.57;;;9.80;90.20;;;;;;4920486;29;20024;-81
2022/03/29 05:00:22;;;;;;;34.25;16.33;;;9.80;90.10;;;;;;4923623;29;20024;-82
2022/03/29 05:02:49;;;;;;;39.40;14.63;;;9.80;90.10;;;;;;4932943;29;20060;-81
2022/03/29 05:05:15;;;;;;;33.40;15.02;;;9.90;90.10;;;;;;4931910;29;20095;-81
2022/03/29 05:07:41;;;;;;;29.98;15.40;;;9.90;90.10;;;;;;4932192;29;20024;-80
2022/03/29 05:10:08;;;;;;;35.95;16.13;;;9.90;90.00;;;;;;4935439;29;20031;-80
2022/03/29 05:12:41;;;;;;;45.50;16.83;;;9.90;90.10;;;;;;4936694;29;20040;-81
2022/03/29 05:15:08;;;;;;;38.90;15.93;;;10.00;90.20;;;;;;4934428;29;20024;-81
2022/03/29 05:17:35;;;;;;;29.60;15.45;;;10.00;90.60;;;;;;4932390;29;20020;-80
2022/03/29 05:20:04;;;;;;;35.80;15.77;;;10.10;91.00;;;;;;4931389;29;20067;-81
2022/03/29 05:22:30;;;;;;;33.35;15.82;;;10.10;92.20;;;;;;4932482;29;20044;-81
2022/03/29 05:24:57;;;;;;;43.13;17.15;;;10.20;93.20;;;;;;4934366;29;20028;-84
2022/03/29 05:27:22;;;;;;;33.38;14.90;;;10.30;93.70;;;;;;4933371;29;20040;-82
2022/03/29 05:29:48;;;;;;;48.75;18.35;;;10.30;94.50;;;;;;4935153;29;20057;-83
2022/03/29 05:32:18;;;;;;;40.58;18.17;;;10.40;95.70;;;;;;4932343;29;20072;-83
2022/03/29 05:34:45;;;;;;;39.33;17.52;;;10.50;96.00;;;;;;4933041;29;20043;-83
2022/03/29 05:37:12;;;;;;;42.58;17.45;;;10.50;96.10;;;;;;4929782;29;20035;-80
2022/03/29 05:39:39;;;;;;;37.88;17.35;;;10.60;95.80;;;;;;4924209;29;20052;-82
2022/03/29 05:42:06;;;;;;;49.83;17.40;;;10.70;95.80;;;;;;4934684;29;20031;-84
2022/03/29 05:44:31;;;;;;;53.85;18.02;;;10.80;95.70;;;;;;4930778;29;20043;-82
2022/03/29 05:49:41;;;;;;;49.40;17.20;;;10.90;95.70;;;;;;4941925;29;20153;-82
2022/03/29 05:52:07;;;;;;;54.05;20.17;;;11.00;95.50;;;;;;4939648;29;20066;-81
2022/03/29 05:54:35;;;;;;;58.00;20.73;;;11.00;97.20;;;;;;4941325;29;20052;-82
2022/03/29 05:57:00;;;;;;;48.25;20.13;;;11.00;98.40;;;;;;4941449;29;20009;-82
2022/03/29 05:59:26;;;;;;;55.55;20.70;;;11.00;99.00;;;;;;4941551;29;20013;-83
2022/03/29 06:01:52;;;;;;;53.58;19.88;;;11.00;99.10;;;;;;4922029;29;20033;-84
2022/03/29 06:04:22;;;;;;;58.92;21.00;;;11.20;98.00;;;;;;4931048;29;20040;-83
2022/03/29 06:06:49;;;;;;;60.70;20.10;;;11.20;98.00;;;;;;4952226;29;20034;-80
2022/03/29 06:09:15;;;;;;;49.20;19.55;;;11.40;97.10;;;;;;4944383;29;20044;-81
2022/03/29 06:11:41;;;;;;;49.28;18.08;;;11.40;95.80;;;;;;4939522;29;20044;-78
2022/03/29 06:14:07;;;;;;;43.90;18.08;;;11.50;95.00;;;;;;4948193;29;20039;-81
2022/03/29 06:16:32;;;;;;;54.33;19.63;;;11.80;92.00;;;;;;4931152;29;20032;-82
2022/03/29 06:18:58;;;;;;;57.22;18.73;;;12.00;93.00;;;;;;4932953;29;20053;-81
2022/03/29 06:21:24;;;;;;;46.83;18.65;;;12.10;93.30;;;;;;4939937;29;20043;-81
2022/03/29 06:23:51;;;;;;;45.80;18.98;;;12.30;93.60;;;;;;4940981;29;20040;-80
2022/03/29 06:26:18;;;;;;;54.47;18.65;;;12.30;93.00;;;;;;4945104;29;20060;-84
2022/03/29 06:28:44;;;;;;;45.75;16.98;;;12.50;93.00;;;;;;4948317;29;20052;-80
2022/03/29 06:31:10;;;;;;;41.00;16.70;;;12.60;90.50;;;;;;4941828;29;20055;-83
2022/03/29 06:33:36;;;;;;;43.70;17.73;;;12.80;90.50;;;;;;4936035;29;20032;-82
2022/03/29 06:36:02;;;;;;;50.53;18.40;;;13.00;90.00;;;;;;4940441;29;20023;-81
2022/03/29 06:38:31;;;;;;;48.58;18.20;;;13.10;89.50;;;;;;4924946;29;20502;-81
2022/03/29 06:40:59;;;;;;;64.15;19.13;;;13.20;89.00;;;;;;4936516;29;20043;-81
2022/03/29 06:43:25;;;;;;;74.60;19.23;;;13.30;88.70;;;;;;4931902;29;20064;-80
2022/03/29 06:45:51;;;;;;;56.13;18.30;;;13.40;89.40;;;;;;4931564;29;20051;-81
2022/03/29 06:48:17;;;;;;;49.05;18.52;;;13.40;89.00;;;;;;4931072;29;20139;-84
2022/03/29 06:50:44;;;;;;;63.80;18.45;;;13.60;86.00;;;;;;4925651;29;20060;-83
2022/03/29 06:53:09;;;;;;;73.25;18.15;;;13.70;85.50;;;;;;4930335;29;20020;-84
2022/03/29 06:55:35;;;;;;;49.75;17.00;;;13.90;83.30;;;;;;4932389;29;20091;-83
2022/03/29 06:58:02;;;;;;;49.45;18.83;;;14.10;82.60;;;;;;4931804;29;20503;-83
2022/03/29 07:00:28;;;;;;;42.83;17.30;;;14.30;81.80;;;;;;4930855;29;20029;-83
2022/03/29 07:02:54;;;;;;;47.78;17.45;;;14.50;79.20;;;;;;4933581;29;20030;-80
2022/03/29 07:05:20;;;;;;;36.03;16.60;;;14.60;77.00;;;;;;4931129;29;20036;-82
2022/03/29 07:07:46;;;;;;;37.50;16.48;;;14.80;76.60;;;;;;4937823;29;20023;-81
2022/03/29 07:13:01;;;;;;;47.95;17.92;;;15.20;75.00;;;;;;4925627;29;20032;-80
2022/03/29 07:15:28;;;;;;;44.67;17.85;;;15.30;74.30;;;;;;4935646;29;20036;-80
2022/03/29 07:17:54;;;;;;;37.10;16.50;;;15.50;72.70;;;;;;4928370;29;20107;-80
2022/03/29 07:20:21;;;;;;;39.65;16.92;;;15.60;70.80;;;;;;4929766;29;20028;-82
2022/03/29 07:22:48;;;;;;;45.70;16.50;;;15.80;70.80;;;;;;4936270;29;20024;-82
2022/03/29 07:25:18;;;;;;;34.88;16.17;;;15.90;70.30;;;;;;4932321;29;20521;-81
2022/03/29 07:27:44;;;;;;;36.13;15.13;;;16.00;69.30;;;;;;4935847;29;20067;-79
2022/03/29 07:30:11;;;;;;;36.65;14.77;;;16.20;65.30;;;;;;4920542;29;20103;-81
2022/03/29 07:32:51;;;;;;;29.38;13.38;;;16.50;63.30;;;;;;4920769;29;20032;-80
2022/03/29 07:35:18;;;;;;;34.88;13.82;;;16.80;62.20;;;;;;4927283;29;20111;-80
2022/03/29 07:37:45;;;;;;;38.03;16.27;;;17.00;61.70;;;;;;4938111;29;20025;-80
2022/03/29 07:40:12;;;;;;;42.38;15.63;;;17.10;61.00;;;;;;4938108;29;20043;-78
2022/03/29 07:42:38;;;;;;;33.88;14.48;;;17.20;60.20;;;;;;4939422;29;20024;-79
2022/03/29 07:45:06;;;;;;;33.83;15.93;;;17.40;59.80;;;;;;4942896;29;20055;-79
2022/03/29 07:47:34;;;;;;;27.48;13.60;;;17.40;59.50;;;;;;4932990;29;20093;-79
2022/03/29 07:50:06;;;;;;;39.22;14.95;;;17.60;59.30;;;;;;4939284;29;20059;-80
2022/03/29 07:52:36;;;;;;;40.58;14.27;;;17.60;59.00;;;;;;4935311;29;20047;-79
2022/03/29 07:55:03;;;;;;;31.67;14.52;;;17.80;59.00;;;;;;4940507;29;20032;-79
2022/03/29 07:57:29;;;;;;;32.05;14.15;;;17.80;58.60;;;;;;4922634;29;20020;-81
2022/03/29 07:59:55;;;;;;;31.20;14.43;;;17.90;58.50;;;;;;4927539;29;20085;-80
2022/03/29 08:02:21;;;;;;;32.22;13.60;;;18.10;58.80;;;;;;4928462;29;20064;-81
2022/03/29 08:04:46;;;;;;;33.35;15.07;;;18.10;57.60;;;;;;4926490;29;20039;-79
2022/03/29 08:07:12;;;;;;;36.90;14.77;;;18.20;57.40;;;;;;4929254;29;20071;-80
2022/03/29 08:09:38;;;;;;;27.15;14.13;;;18.30;57.70;;;;;;4928018;29;20473;-79
2022/03/29 08:12:04;;;;;;;30.30;14.68;;;18.30;57.40;;;;;;4931621;29;20046;-80
2022/03/29 08:14:30;;;;;;;28.20;14.27;;;18.40;56.90;;;;;;4930726;29;20028;-80
2022/03/29 08:16:56;;;;;;;34.88;14.57;;;18.50;56.40;;;;;;4927162;29;20079;-80
2022/03/29 08:19:23;;;;;;;33.50;14.73;;;18.60;56.80;;;;;;4934728;29;20012;-79
2022/03/29 08:21:52;;;;;;;29.40;13.63;;;18.60;56.40;;;;;;4931032;29;20038;-79
2022/03/29 08:24:21;;;;;;;34.10;13.77;;;18.50;56.40;;;;;;4936157;29;20059;-79
2022/03/29 08:26:48;;;;;;;33.38;14.50;;;18.70;56.00;;;;;;4932164;29;20024;-81
2022/03/29 08:29:21;;;;;;;34.83;14.43;;;19.00;55.70;;;;;;4925059;29;20100;-81
2022/03/29 08:31:49;;;;;;;27.50;13.43;;;18.80;55.80;;;;;;4935112;29;20039;-83
2022/03/29 08:34:16;;;;;;;26.88;13.65;;;18.80;56.10;;;;;;4932046;29;20028;-82
2022/03/29 08:36:43;;;;;;;28.10;13.45;;;19.00;55.60;;;;;;4934428;29;20060;-81
2022/03/29 08:39:10;;;;;;;32.90;13.93;;;19.30;55.20;;;;;;4926555;29;20100;-81
2022/03/29 08:41:46;;;;;;;29.08;13.25;;;19.50;54.60;;;;;;4926597;29;20020;-81
2022/03/29 08:44:12;;;;;;;26.42;12.60;;;19.60;54.30;;;;;;4918973;29;20036;-82
2022/03/29 08:46:41;;;;;;;29.77;12.40;;;19.40;54.70;;;;;;4920977;29;20171;-82
2022/03/29 08:49:09;;;;;;;26.50;13.27;;;19.50;54.80;;;;;;4920715;29;20429;-82
2022/03/29 08:51:36;;;;;;;24.55;13.02;;;19.70;55.10;;;;;;4925395;29;20028;-81
2022/03/29 08:54:03;;;;;;;25.58;12.55;;;19.80;54.60;;;;;;4922707;29;20127;-83
2022/03/29 08:56:28;;;;;;;33.35;13.23;;;20.10;54.30;;;;;;4922591;29;20035;-83
2022/03/29 08:58:56;;;;;;;28.25;13.18;;;20.20;54.30;;;;;;4925361;29;20119;-83
2022/03/29 09:01:23;;;;;;;27.67;12.95;;;20.10;54.10;;;;;;4927151;29;20036;-83
2022/03/29 09:04:11;;;;;;;25.88;11.73;;;20.20;54.10;;;;;;4936335;29;20016;-81
2022/03/29 09:06:56;;;;;;;25.52;13.02;;;20.30;53.90;;;;;;4932963;29;20099;-81
2022/03/29 09:09:23;;;;;;;44.22;13.50;;;20.50;54.10;;;;;;4937412;29;20036;-82
2022/03/29 09:11:50;;;;;;;28.98;12.50;;;20.80;53.70;;;;;;4918350;29;20028;-83
2022/03/29 09:14:18;;;;;;;37.58;12.40;;;21.10;53.40;;;;;;4924688;29;20048;-82
2022/03/29 09:16:44;;;;;;;27.05;11.68;;;21.40;53.10;;;;;;4933261;29;20068;-81
2022/03/29 09:19:11;;;;;;;24.58;11.00;;;21.90;52.60;;;;;;4928345;29;20135;-83
2022/03/29 09:21:44;;;;;;;24.00;10.90;;;22.80;51.50;;;;;;4931084;29;20020;-84
2022/03/29 09:24:17;;;;;;;22.33;12.13;;;23.40;50.70;;;;;;4939974;29;20062;-81
2022/03/29 09:26:54;;;;;;;21.33;11.18;;;24.10;50.00;;;;;;4931310;29;20399;-81
2022/03/29 09:29:24;;;;;;;21.65;10.77;;;24.90;48.90;;;;;;4927615;29;20025;-82
2022/03/29 09:32:08;;;;;;;21.77;10.13;;;25.40;48.10;;;;;;4930265;29;20044;-81
2022/03/29 09:34:35;;;;;;;;;;;25.50;47.60;;;;;;4937935;29;20040;-81
2022/03/29 09:37:03;;;;;;;24.13;11.07;;;25.20;47.50;;;;;;4931567;29;19911;-81
2022/03/29 09:39:40;;;;;;;21.42;11.55;;;25.70;47.20;;;;;;4926542;29;20176;-83
2022/03/29 09:42:14;;;;;;;19.20;10.13;;;26.40;46.70;;;;;;4927097;29;20408;-82
2022/03/29 09:44:51;;;;;;;17.13;10.27;;;26.20;46.40;;;;;;4934845;29;20032;-82
2022/03/29 09:47:22;;;;;;;19.58;10.25;;;26.70;46.10;;;;;;4937127;29;20026;-81
2022/03/29 09:50:12;;;;;;;21.52;9.75;;;26.50;46.00;;;;;;4933536;29;20436;-83
2022/03/29 09:52:43;;;;;;;25.50;10.52;;;26.90;45.90;;;;;;4927831;29;20036;-84
2022/03/29 09:55:15;;;;;;;23.42;11.32;;;27.50;45.10;;;;;;4925111;29;20439;-78
2022/03/29 09:57:47;;;;;;;26.92;11.23;;;27.50;45.10;;;;;;4923844;29;20028;-81
2022/03/29 10:00:17;;;;;;;21.17;10.35;;;27.50;44.70;;;;;;4924912;29;20052;-81
2022/03/29 10:02:47;;;;;;;22.23;10.85;;;27.90;44.50;;;;;;4925318;29;20476;-81
2022/03/29 10:05:17;;;;;;;22.52;10.32;;;28.20;44.20;;;;;;4928594;29;20118;-82
2022/03/29 10:09:25;;;;;;;28.52;17.30;;;28.50;44.00;;;;;;4923572;29;20036;-82
2022/03/29 10:10:44;;;;;;;21.20;11.20;;;29.00;43.60;;;;;;4919879;29;20116;-81
2022/03/29 10:13:10;;;;;;;23.58;10.43;;;29.80;42.30;;;;;;4925917;29;20040;-80
2022/03/29 10:15:38;;;;;;;23.15;12.00;;;29.60;42.10;;;;;;4928084;29;20068;-80
2022/03/29 10:18:04;;;;;;;21.25;11.18;;;29.50;42.10;;;;;;4932266;29;20016;-79
2022/03/29 10:20:30;;;;;;;18.15;10.48;;;30.10;42.10;;;;;;4930933;29;20072;-81
2022/03/29 10:22:57;;;;;;;17.73;9.68;;;29.90;41.40;;;;;;4937910;29;20039;-79
2022/03/29 10:25:24;;;;;;;18.95;9.93;;;30.50;41.10;;;;;;4934404;29;20064;-80
2022/03/29 10:27:50;;;;;;;23.90;9.48;;;31.40;40.50;;;;;;4937740;29;20019;-80
2022/03/29 10:30:39;;;;;;;18.25;10.50;;;32.00;40.00;;;;;;4936502;29;20096;-79
2022/03/29 10:33:23;;;;;;;25.48;9.93;;;32.50;39.60;;;;;;4952638;29;20028;-81
2022/03/29 10:35:59;;;;;;;17.98;9.85;;;32.20;39.00;;;;;;4936768;29;20016;-79
2022/03/29 10:38:43;;;;;;;24.05;11.30;;;31.10;38.90;;;;;;4936152;29;20031;-83
2022/03/29 10:41:27;;;;;;;19.73;11.40;;;30.20;39.30;;;;;;4935302;29;20035;-80
2022/03/29 10:43:54;;;;;;;26.77;10.93;;;29.20;40.00;;;;;;4924795;29;20043;-81
2022/03/29 10:46:25;;;;;;;22.50;11.55;;;29.10;40.40;;;;;;4927439;29;20312;-81
2022/03/29 10:49:28;;;;;;;24.48;12.00;;;29.00;40.10;;;;;;4929149;29;20040;-82
2022/03/29 10:52:06;;;;;;;26.75;11.93;;;29.20;39.80;;;;;;4925384;29;20055;-82
2022/03/29 10:54:40;;;;;;;25.45;11.45;;;30.00;39.70;;;;;;4926418;29;20484;-82
2022/03/29 10:57:07;;;;;;;;;;;30.50;39.30;;;;;;4929078;29;20036;-82
2022/03/29 10:59:35;;;;;;;20.05;12.02;;;30.50;38.90;;;;;;4939934;29;19902;-82
2022/03/29 11:02:16;;;;;;;23.90;11.20;;;31.10;38.80;;;;;;4934492;29;20056;-80
2022/03/29 11:05:07;;;;;;;22.67;11.65;;;31.00;37.90;;;;;;4939363;29;20100;-81
2022/03/29 11:07:51;;;;;;;23.70;11.98;;;31.20;38.00;;;;;;4941818;29;20032;-81
2022/03/29 11:10:20;;;;;;;22.03;11.43;;;31.40;37.90;;;;;;4927442;29;20093;-83
2022/03/29 11:12:51;;;;;;;25.40;12.68;;;31.30;37.90;;;;;;4939643;29;20035;-84
2022/03/29 11:15:36;;;;;;;27.58;12.00;;;31.30;38.10;;;;;;4938264;29;20032;-81
2022/03/29 11:18:04;;;;;;;;;;;31.50;37.80;;;;;;4934170;29;20480;-83
2022/03/29 11:20:34;;;;;;;21.00;12.05;;;31.40;37.80;;;;;;4930505;29;20302;-83
2022/03/29 11:23:04;;;;;;;23.30;12.23;;;31.20;37.60;;;;;;4935700;29;20487;-83
2022/03/29 11:25:39;;;;;;;22.08;11.95;;;31.30;37.80;;;;;;4934435;29;20028;-80
2022/03/29 11:28:07;;;;;;;24.15;12.07;;;31.50;37.70;;;;;;4919535;29;20048;-83
2022/03/29 11:30:34;;;;;;;18.88;11.57;;;31.90;37.80;;;;;;4919255;29;20104;-82
2022/03/29 11:33:03;;;;;;;28.23;12.77;;;31.20;37.90;;;;;;4927452;29;20044;-82
2022/03/29 11:35:31;;;;;;;25.23;12.07;;;29.80;38.10;;;;;;4924579;29;20040;-81
2022/03/29 11:38:07;;;;;;;18.98;11.25;;;29.40;38.90;;;;;;4924691;29;20440;-83
2022/03/29 11:40:33;;;;;;;22.52;12.18;;;29.80;39.10;;;;;;4930490;29;20016;-81
2022/03/29 11:43:00;;;;;;;24.60;13.10;;;30.60;38.30;;;;;;4932078;29;20032;-83
2022/03/29 11:45:29;;;;;;;21.88;12.00;;;31.80;37.70;;;;;;4907525;29;20032;-82
2022/03/29 11:47:57;;;;;;;17.77;11.45;;;32.30;37.40;;;;;;4937999;29;20031;-82
2022/03/29 11:50:43;;;;;;;20.27;11.93;;;32.80;37.00;;;;;;4933769;29;20048;-81
2022/03/29 11:53:28;;;;;;;24.30;12.18;;;33.30;37.80;;;;;;4922487;29;20051;-79
2022/03/29 11:56:00;;;;;;;20.25;12.00;;;33.80;37.80;;;;;;4936135;29;20040;-77
2022/03/29 11:58:32;;;;;;;19.10;12.10;;;31.00;38.10;;;;;;4918251;29;20508;-78
2022/03/29 12:01:23;;;;;;;20.88;11.77;;;31.30;38.50;;;;;;4928332;29;20099;-78
2022/03/29 12:03:55;;;;;;;21.17;12.05;;;32.00;37.70;;;;;;4925478;29;20031;-79
2022/03/29 12:06:25;;;;;;;22.92;12.27;;;32.70;38.70;;;;;;4925855;29;20039;-76
2022/03/29 12:08:56;;;;;;;19.85;10.10;;;33.60;37.20;;;;;;4921530;29;20547;-77
2022/03/29 12:11:31;;;;;;;22.70;11.13;;;33.10;40.80;;;;;;4922573;29;20028;-77
2022/03/29 12:14:10;;;;;;;23.05;11.15;;;32.80;39.10;;;;;;4922493;29;20124;-77
2022/03/29 12:16:41;;;;;;;22.65;11.27;;;32.50;40.00;;;;;;4922810;29;20059;-79
2022/03/29 12:19:11;;;;;;;23.33;12.80;;;31.40;37.70;;;;;;4924027;29;20039;-77
2022/03/29 12:21:38;;;;;;;19.92;11.10;;;31.00;37.90;;;;;;4915814;29;20111;-77
2022/03/29 12:24:07;;;;;;;27.70;12.80;;;31.90;38.80;;;;;;4917358;29;20056;-77
2022/03/29 12:26:47;;;;;;;21.42;10.77;;;32.40;38.10;;;;;;4918509;29;20056;-79
2022/03/29 12:29:16;;;;;;;21.08;10.50;;;32.60;38.10;;;;;;4920270;29;20032;-77
2022/03/29 12:31:43;;;;;;;18.10;11.02;;;31.90;37.50;;;;;;4917504;29;20032;-78
2022/03/29 12:34:12;;;;;;;21.08;9.68;;;31.10;39.50;;;;;;4920379;29;20028;-78
2022/03/29 12:36:48;;;;;;;23.48;11.50;;;30.70;40.50;;;;;;4912201;29;20055;-75
2022/03/29 12:39:14;;;;;;;22.05;10.88;;;30.80;38.10;;;;;;4926138;29;20088;-77
2022/03/29 12:41:53;;;;;;;19.90;11.20;;;30.80;37.10;;;;;;4924982;29;20028;-77
2022/03/29 12:44:43;;;;;;;17.88;9.65;;;30.90;37.10;;;;;;4915179;29;20028;-78
2022/03/29 12:47:09;;;;;;;24.65;11.43;;;31.40;37.20;;;;;;4915342;29;20118;-77